Time;durP1;ratioP1;P1;durP2;ratioP2;P2;SDS_P1;SDS_P2;PMS_P1;PMS_P2;Temp;Humidity;BMP_temperature;BMP_pressure;BME280_temperature;BME280_humidity;BME280_pressure;Samples;Min_cycle;Max_cycle;Signal;HPM_P1;HPM_P2
2022/06/14 00:01:26;;;;;;;3.85;0.90;;;;;;;10.25;62.42;101485.50;5037651;28;20537;-65
2022/06/14 00:03:53;;;;;;;9.80;1.75;;;;;;;10.32;62.18;101490.31;5038051;28;20176;-65
2022/06/14 00:06:23;;;;;;;6.00;1.15;;;;;;;10.30;62.12;101487.75;5037668;28;20052;-65
2022/06/14 00:08:50;;;;;;;6.13;1.20;;;;;;;10.20;62.29;101485.09;5037668;28;20145;-65
2022/06/14 00:11:29;;;;;;;8.68;1.25;;;;;;;10.24;62.35;101491.03;5037453;28;20098;-65
2022/06/14 00:13:57;;;;;;;5.80;1.38;;;;;;;10.17;62.40;101489.88;5037144;28;20140;-65
2022/06/14 00:16:25;;;;;;;6.13;1.20;;;;;;;10.16;62.10;101493.53;5037105;28;20537;-65
2022/06/14 00:18:52;;;;;;;8.00;1.75;;;;;;;10.16;62.04;101491.69;5037012;28;20053;-66
2022/06/14 00:21:20;;;;;;;4.70;1.00;;;;;;;10.14;61.85;101500.91;5019337;28;20477;-64
2022/06/14 00:23:47;;;;;;;5.28;1.05;;;;;;;10.09;61.92;101509.31;5036880;28;20091;-66
2022/06/14 00:26:13;;;;;;;6.05;1.00;;;;;;;10.10;61.82;101499.44;5037044;28;20141;-66
2022/06/14 00:28:43;;;;;;;6.82;1.33;;;;;;;10.06;61.62;101508.75;5036700;28;20055;-66
2022/06/14 00:31:14;;;;;;;5.00;1.30;;;;;;;10.05;61.43;101507.91;5037443;28;20191;-65
2022/06/14 00:33:41;;;;;;;9.20;1.10;;;;;;;10.15;61.09;101497.22;5036929;28;20474;-66
2022/06/14 00:36:33;;;;;;;3.45;0.90;;;;;;;10.08;60.63;101506.81;5036843;28;20136;-66
2022/06/14 00:39:04;;;;;;;7.75;1.30;;;;;;;10.07;60.86;101505.97;5037344;28;20132;-66
2022/06/14 00:41:42;;;;;;;5.95;1.30;;;;;;;10.07;60.69;101494.38;5036530;28;20046;-66
2022/06/14 00:44:23;;;;;;;9.80;1.50;;;;;;;10.06;60.53;101506.06;5036492;28;20063;-66
2022/06/14 00:46:58;;;;;;;4.45;0.90;;;;;;;9.98;60.48;101507.63;5036943;28;20050;-66
2022/06/14 00:49:49;;;;;;;7.40;1.38;;;;;;;9.88;60.49;101501.38;5036351;28;20136;-66
2022/06/14 00:52:24;;;;;;;7.97;1.58;;;;;;;9.85;60.87;101509.69;5036835;28;20049;-66
2022/06/14 00:54:56;;;;;;;10.05;1.63;;;;;;;9.85;60.79;101515.03;5037164;28;20095;-66
2022/06/14 00:57:28;;;;;;;5.00;0.90;;;;;;;9.82;61.17;101507.31;5036634;28;20077;-66
2022/06/14 01:00:09;;;;;;;10.48;1.40;;;;;;;9.79;60.94;101512.94;5036486;28;20464;-66
2022/06/14 01:02:43;;;;;;;5.72;1.30;;;;;;;9.77;61.01;101509.53;5036191;28;20092;-66
2022/06/14 01:08:53;;;;;;;5.65;1.40;;;;;;;9.65;61.26;101510.63;5036641;28;20049;-66
2022/06/14 01:11:28;;;;;;;5.90;1.40;;;;;;;9.59;61.28;101509.31;5035346;28;20133;-66
2022/06/14 01:13:55;;;;;;;7.07;1.60;;;;;;;9.56;61.27;101513.09;5036437;28;20091;-66
2022/06/14 01:16:21;;;;;;;5.97;1.30;;;;;;;9.52;61.33;101517.03;5036265;28;20059;-66
2022/06/14 01:18:48;;;;;;;6.60;1.45;;;;;;;9.49;61.18;101520.00;5036305;28;20512;-66
2022/06/14 01:21:15;;;;;;;3.83;0.95;;;;;;;9.51;60.89;101512.69;5036523;28;20478;-66
2022/06/14 01:23:43;;;;;;;11.07;1.70;;;;;;;9.41;61.30;101524.31;5036313;28;20090;-66
2022/06/14 01:26:30;;;;;;;9.75;1.40;;;;;;;9.41;61.20;101517.13;5035916;28;20136;-66
2022/06/14 01:29:01;;;;;;;9.60;1.45;;;;;;;9.42;61.04;101526.03;5036318;28;20084;-66
2022/06/14 01:31:30;;;;;;;12.43;1.48;;;;;;;9.41;61.10;101517.13;5035757;28;20145;-66
2022/06/14 01:34:01;;;;;;;4.22;1.00;;;;;;;9.37;61.08;101512.16;5036346;28;20119;-66
2022/06/14 01:36:36;;;;;;;6.75;1.02;;;;;;;9.26;61.49;101515.78;5036427;28;20482;-66
2022/06/14 01:39:06;;;;;;;7.55;1.50;;;;;;;9.23;61.30;101518.66;5036069;28;20053;-65
2022/06/14 01:42:19;;;;;;;11.25;1.98;;;;;;;9.18;61.33;101516.41;5036156;28;20072;-66
2022/06/14 01:45:04;;;;;;;9.93;1.23;;;;;;;9.14;61.63;101523.00;5035231;28;20058;-66
2022/06/14 01:47:39;;;;;;;12.65;2.47;;;;;;;9.06;61.78;101520.16;5035917;28;20084;-66
2022/06/14 01:53:12;;;;;;;7.20;1.42;;;;;;;9.12;62.07;101530.31;5035335;28;20461;-66
2022/06/14 01:55:44;;;;;;;8.07;1.65;;;;;;;9.11;61.63;101533.97;5035108;28;20084;-66
2022/06/14 01:58:37;;;;;;;9.20;1.45;;;;;;;9.02;61.92;101535.63;5035381;28;20096;-66
2022/06/14 02:01:15;;;;;;;6.47;1.50;;;;;;;8.99;62.23;101526.97;5035087;28;20132;-66
2022/06/14 02:06:45;;;;;;;6.18;1.55;;;;;;;8.92;62.37;101534.69;5035370;28;20466;-66
2022/06/14 02:09:21;;;;;;;4.00;1.42;;;;;;;8.89;62.39;101536.78;5035386;28;20080;-66
2022/06/14 02:11:48;;;;;;;8.07;1.83;;;;;;;8.80;62.87;101544.59;5035241;28;20132;-66
2022/06/14 02:14:29;;;;;;;8.80;1.45;;;;;;;8.78;62.89;101546.56;5034856;28;20084;-66
2022/06/14 02:17:11;;;;;;;10.38;1.60;;;;;;;8.72;63.13;101552.41;5035189;28;20458;-66
2022/06/14 02:19:43;;;;;;;5.22;1.65;;;;;;;8.66;63.66;101550.25;5035987;28;20041;-66
2022/06/14 02:22:27;;;;;;;8.75;1.95;;;;;;;8.63;63.75;101555.00;5034868;28;20136;-66
2022/06/14 02:25:06;;;;;;;6.28;1.40;;;;;;;8.64;63.62;101552.19;5034879;28;20140;-66
2022/06/14 02:27:48;;;;;;;10.70;1.70;;;;;;;8.65;63.82;101551.22;5034744;28;20084;-66
2022/06/14 02:30:22;;;;;;;9.13;1.58;;;;;;;8.61;63.80;101553.31;5034918;28;20049;-66
2022/06/14 02:32:56;;;;;;;7.15;1.77;;;;;;;8.52;64.31;101547.88;5034695;28;20050;-66
2022/06/14 02:35:29;;;;;;;12.60;2.35;;;;;;;8.49;64.37;101546.28;5034591;28;20140;-66
2022/06/14 02:38:07;;;;;;;8.02;1.73;;;;;;;8.51;64.49;101546.19;5034652;28;20080;-66
2022/06/14 02:40:41;;;;;;;11.68;1.90;;;;;;;8.49;64.73;101546.28;5034555;28;20461;-66
2022/06/14 02:43:15;;;;;;;10.68;1.92;;;;;;;8.47;64.88;101544.72;5034456;28;20050;-66
2022/06/14 02:45:47;;;;;;;14.70;2.22;;;;;;;8.43;64.97;101544.09;5034930;28;20481;-66
2022/06/14 02:48:20;;;;;;;9.52;2.00;;;;;;;8.40;65.04;101555.09;5034220;28;20049;-66
2022/06/14 02:51:01;;;;;;;10.65;1.83;;;;;;;8.43;65.12;101551.28;5034426;28;20139;-66
2022/06/14 02:53:34;;;;;;;8.35;2.15;;;;;;;8.41;65.15;101567.47;5034494;28;20092;-66
2022/06/14 02:56:19;;;;;;;10.25;1.90;;;;;;;8.38;65.10;101552.53;5034609;28;20049;-66
2022/06/14 02:58:57;;;;;;;5.10;1.63;;;;;;;8.36;65.22;101557.16;5035145;28;20081;-66
2022/06/14 03:01:29;;;;;;;8.13;1.80;;;;;;;8.34;65.40;101555.59;5034025;28;20084;-66
2022/06/14 03:04:10;;;;;;;7.05;1.50;;;;;;;8.36;65.14;101553.63;5034525;28;20409;-66
2022/06/14 03:06:46;;;;;;;9.70;2.22;;;;;;;8.39;65.29;101545.34;5034205;28;20056;-66
2022/06/14 03:09:18;;;;;;;10.02;1.98;;;;;;;8.41;65.26;101554.09;5034081;28;20128;-66
2022/06/14 03:12:06;;;;;;;9.77;1.92;;;;;;;8.42;65.32;101558.47;5034388;28;20485;-66
2022/06/14 03:15:00;;;;;;;8.98;1.88;;;;;;;8.51;65.16;101551.53;5034355;28;20143;-66
2022/06/14 03:17:46;;;;;;;7.95;1.83;;;;;;;8.55;64.71;101556.50;5034073;28;20497;-66
2022/06/14 03:20:30;;;;;;;12.60;2.05;;;;;;;8.58;64.65;101556.25;5035311;28;20441;-66
2022/06/14 03:23:18;;;;;;;11.30;1.60;;;;;;;8.64;64.50;101559.38;5034146;28;20049;-65
2022/06/14 03:26:01;;;;;;;12.70;1.90;;;;;;;8.69;64.40;101562.53;5034076;28;20609;-66
2022/06/14 03:28:37;;;;;;;7.72;1.60;;;;;;;8.64;64.72;101567.38;5034271;28;20140;-66
2022/06/14 03:31:15;;;;;;;7.07;1.60;;;;;;;8.59;64.73;101560.59;5033866;28;20050;-66
2022/06/14 03:34:08;;;;;;;10.35;1.50;;;;;;;8.57;65.16;101562.56;5033726;28;20060;-66
2022/06/14 03:36:36;;;;;;;10.65;2.20;;;;;;;8.59;64.75;101565.94;5033908;28;20140;-66
2022/06/14 03:39:08;;;;;;;9.57;2.00;;;;;;;8.56;64.86;101565.34;5034339;28;20157;-66
2022/06/14 03:41:38;;;;;;;10.73;2.05;;;;;;;8.60;64.98;101567.63;5034651;28;20140;-66
2022/06/14 03:44:05;;;;;;;7.95;2.17;;;;;;;8.61;65.13;101574.72;5033873;28;20100;-66
2022/06/14 03:46:39;;;;;;;12.85;2.25;;;;;;;8.61;65.11;101565.84;5034130;28;20045;-66
2022/06/14 03:49:17;;;;;;;15.10;3.90;;;;;;;8.60;65.17;101564.97;5033585;28;20045;-66
2022/06/14 03:51:59;;;;;;;17.80;4.60;;;;;;;8.59;65.03;101570.44;5033648;28;20136;-66
2022/06/14 03:54:58;;;;;;;11.18;2.20;;;;;;;8.58;65.34;101568.75;5034889;28;20474;-66
2022/06/14 03:58:04;;;;;;;9.07;2.10;;;;;;;8.60;65.37;101570.31;5033901;28;20087;-66
2022/06/14 04:00:51;;;;;;;10.93;2.60;;;;;;;8.61;65.57;101580.06;5033660;28;20164;-66
2022/06/14 04:03:40;;;;;;;10.18;2.30;;;;;;;8.66;65.47;101581.50;5033690;28;20046;-66
2022/06/14 04:06:23;;;;;;;10.07;1.75;;;;;;;8.74;65.13;101584.38;5037117;28;20440;-66
2022/06/14 04:09:25;;;;;;;12.77;3.00;;;;;;;8.76;65.02;101582.44;5033656;28;20092;-66
2022/06/14 04:12:07;;;;;;;13.00;2.30;;;;;;;8.83;65.04;101586.31;5033986;28;20136;-66
2022/06/14 04:14:59;;;;;;;9.65;2.03;;;;;;;8.83;64.99;101588.97;5034522;28;20462;-66
2022/06/14 04:17:34;;;;;;;18.77;2.33;;;;;;;8.91;64.51;101581.16;5034324;28;20092;-66
2022/06/14 04:20:14;;;;;;;8.35;1.92;;;;;;;8.93;64.61;101586.38;5033553;28;20085;-66
2022/06/14 04:22:51;;;;;;;15.45;2.08;;;;;;;9.01;64.24;101595.47;5033285;28;20042;-66
2022/06/14 04:25:36;;;;;;;16.02;3.42;;;;;;;9.02;64.30;101594.50;5033539;28;20049;-66
2022/06/14 04:28:16;;;;;;;11.82;2.90;;;;;;;9.04;64.12;101587.19;5033479;28;20060;-67
2022/06/14 04:30:59;;;;;;;16.70;3.22;;;;;;;9.03;64.21;101590.84;5033290;28;20049;-66
2022/06/14 04:33:35;;;;;;;8.10;1.95;;;;;;;9.03;64.54;101585.50;5033635;28;20085;-66
2022/06/14 04:36:10;;;;;;;12.15;2.35;;;;;;;9.13;64.25;101592.72;5033444;28;20144;-66
2022/06/14 04:38:42;;;;;;;22.33;3.00;;;;;;;9.13;64.60;101598.94;5033499;28;20076;-66
2022/06/14 04:41:21;;;;;;;13.10;2.90;;;;;;;9.19;64.25;101577.00;5033318;28;20132;-66
2022/06/14 04:44:01;;;;;;;11.15;2.67;;;;;;;9.32;63.92;101582.19;5033163;28;20058;-66
2022/06/14 04:46:36;;;;;;;13.38;2.55;;;;;;;9.54;63.81;101575.81;5036486;28;20448;-66
2022/06/14 04:49:30;;;;;;;11.05;2.45;;;;;;;9.68;62.99;101571.94;5036966;28;20191;-66
2022/06/14 04:52:02;;;;;;;7.65;1.52;;;;;;;9.70;63.08;101583.41;5036658;28;20123;-66
2022/06/14 04:54:38;;;;;;;8.98;3.03;;;;;;;9.74;62.94;101574.94;5036915;28;20481;-66
2022/06/14 04:57:07;;;;;;;15.05;2.50;;;;;;;9.79;62.27;101570.06;5036917;28;20468;-66
2022/06/14 04:59:42;;;;;;;10.25;2.38;;;;;;;9.95;61.66;101574.91;5036882;28;20049;-66
2022/06/14 05:02:22;;;;;;;10.43;2.08;;;;;;;10.47;62.07;101572.06;5036463;28;20081;-66
2022/06/14 05:04:59;;;;;;;16.13;2.97;;;;;;;10.42;60.89;101580.53;5036757;28;20065;-66
2022/06/14 05:07:28;;;;;;;7.78;2.03;;;;;;;10.37;60.56;101579.25;5037136;28;20140;-66
2022/06/14 05:09:59;;;;;;;13.02;2.30;;;;;;;10.28;60.57;101584.47;5037417;28;20080;-65
2022/06/14 05:13:02;;;;;;;8.87;1.80;;;;;;;10.40;60.25;101593.22;5037243;28;20430;-65
2022/06/14 05:15:36;;;;;;;11.73;1.67;;;;;;;10.86;59.46;101578.38;4970398;28;20077;-66
2022/06/14 05:18:22;;;;;;;9.85;2.05;;;;;;;10.85;58.21;101584.72;5036211;28;20539;-66
2022/06/14 05:20:48;;;;;;;12.55;2.13;;;;;;;10.73;58.78;101584.00;5036887;28;20128;-66
2022/06/14 05:23:24;;;;;;;10.80;2.42;;;;;;;10.86;58.69;101589.13;5036368;28;20096;-67
2022/06/14 05:26:04;;;;;;;12.27;1.85;;;;;;;10.62;58.54;101581.47;5037248;28;20139;-64
2022/06/14 05:28:36;;;;;;;16.48;2.33;;;;;;;10.60;59.31;101582.59;5036033;28;20497;-64
2022/06/14 05:31:12;;;;;;;16.63;2.40;;;;;;;10.86;58.18;101589.13;5035979;28;20446;-64
2022/06/14 05:34:07;;;;;;;14.68;2.25;;;;;;;10.69;58.52;101592.50;5035898;28;20056;-64
2022/06/14 05:36:41;;;;;;;10.18;2.30;;;;;;;10.70;58.32;101583.44;5036129;28;20073;-64
2022/06/14 05:39:31;;;;;;;14.98;2.55;;;;;;;10.68;58.91;101574.66;5036421;28;20140;-64
2022/06/14 05:42:29;;;;;;;16.95;2.50;;;;;;;10.85;58.60;101575.81;5035985;28;20513;-64
2022/06/14 05:45:00;;;;;;;12.90;2.55;;;;;;;10.96;57.85;101575.66;5034816;28;20083;-69
2022/06/14 05:47:41;;;;;;;35.38;11.60;;;;;;;10.87;57.59;101572.00;5035960;28;20053;-69
2022/06/14 05:50:15;;;;;;;12.77;2.53;;;;;;;10.76;58.02;101577.53;5036219;28;20083;-69
2022/06/14 05:52:49;;;;;;;17.30;3.38;;;;;;;10.55;58.21;101588.38;5035847;28;20049;-70
2022/06/14 05:55:24;;;;;;;10.25;2.10;;;;;;;10.78;57.55;101586.25;5035284;28;20144;-69
2022/06/14 05:58:06;;;;;;;14.32;2.05;;;;;;;10.83;57.30;101594.75;5035338;28;20085;-70
2022/06/14 06:00:37;;;;;;;14.52;2.58;;;;;;;10.76;57.46;101598.16;5035359;28;20089;-69
2022/06/14 06:03:17;;;;;;;10.90;2.33;;;;;;;10.76;57.50;101603.53;5035673;28;20132;-70
2022/06/14 06:05:58;;;;;;;9.73;2.30;;;;;;;10.77;57.64;101605.19;5035970;28;20080;-70
2022/06/14 06:08:34;;;;;;;14.90;2.88;;;;;;;10.88;57.61;101600.53;5035660;28;20132;-70
2022/06/14 06:11:07;;;;;;;15.35;2.55;;;;;;;10.83;58.19;101602.81;5035756;28;20088;-70
2022/06/14 06:13:44;;;;;;;15.52;2.35;;;;;;;10.89;57.49;101602.22;5018023;28;20132;-70
2022/06/14 06:16:16;;;;;;;15.82;2.65;;;;;;;10.71;58.22;101606.59;5035582;28;20085;-70
2022/06/14 06:19:00;;;;;;;18.55;2.28;;;;;;;10.80;58.64;101608.47;5035531;28;20077;-69
2022/06/14 06:21:52;;;;;;;17.00;2.83;;;;;;;11.06;57.62;101616.78;5035732;28;20085;-70
2022/06/14 06:24:39;;;;;;;16.05;2.65;;;;;;;11.08;57.75;101619.34;5035434;28;20136;-69
2022/06/14 06:27:10;;;;;;;16.23;3.45;;;;;;;11.21;58.91;101615.38;5035300;28;20386;-64
2022/06/14 06:29:54;;;;;;;17.10;3.20;;;;;;;11.67;61.42;101610.25;5035296;28;20077;-64
2022/06/14 06:32:23;;;;;;;10.55;2.05;;;;;;;11.85;58.15;101615.69;5034522;28;20085;-63
2022/06/14 06:34:51;;;;;;;17.95;2.28;;;;;;;12.09;58.76;101615.19;5034783;28;20140;-63
2022/06/14 06:37:25;;;;;;;11.05;2.35;;;;;;;11.93;56.87;101621.19;5034743;28;20140;-63
2022/06/14 06:40:13;;;;;;;15.65;2.25;;;;;;;12.24;56.33;101619.06;5034894;28;20059;-63
2022/06/14 06:43:00;;;;;;;11.77;2.40;;;;;;;12.65;55.79;101627.63;5034859;28;20080;-64
2022/06/14 06:45:30;;;;;;;13.10;2.80;;;;;;;12.64;53.08;101624.06;5034589;28;20049;-64
2022/06/14 06:48:06;;;;;;;11.90;1.92;;;;;;;12.72;53.85;101631.38;5034241;28;20081;-64
2022/06/14 06:50:37;;;;;;;13.65;2.70;;;;;;;12.86;51.58;101628.19;5034321;28;20085;-64
2022/06/14 06:53:10;;;;;;;11.73;2.17;;;;;;;13.11;51.49;101626.59;5034502;28;20096;-63
2022/06/14 06:56:08;;;;;;;13.52;2.50;;;;;;;13.43;50.32;101633.25;5034350;28;20085;-63
2022/06/14 06:58:43;;;;;;;8.27;2.03;;;;;;;13.55;50.14;101631.16;5034481;28;20470;-64
2022/06/14 07:01:39;;;;;;;8.65;2.17;;;;;;;13.68;48.79;101628.88;5034645;28;20083;-64
2022/06/14 07:04:14;;;;;;;9.38;2.17;;;;;;;13.76;49.09;101628.97;5034168;28;20108;-63
2022/06/14 07:06:45;;;;;;;10.38;1.92;;;;;;;14.02;49.05;101628.13;5033845;28;20140;-64
2022/06/14 07:09:22;;;;;;;15.57;2.80;;;;;;;14.02;48.39;101628.13;5033696;28;20085;-63
2022/06/14 07:12:11;;;;;;;12.25;2.35;;;;;;;14.21;47.75;101633.25;5034040;28;20182;-63
2022/06/14 07:15:00;;;;;;;13.10;2.50;;;;;;;14.49;47.01;101627.63;5034309;28;20550;-64
2022/06/14 07:17:35;;;;;;;9.85;1.98;;;;;;;14.51;46.01;101629.16;5034198;28;20091;-64
2022/06/14 07:20:11;;;;;;;10.10;2.10;;;;;;;14.51;46.79;101631.84;5035326;28;20080;-64
2022/06/14 07:22:45;;;;;;;12.02;2.50;;;;;;;14.34;46.30;101637.34;5034108;28;20468;-63
2022/06/14 07:25:28;;;;;;;11.70;2.88;;;;;;;14.36;46.07;101640.72;5034184;28;20053;-64
2022/06/14 07:28:07;;;;;;;12.38;2.05;;;;;;;14.21;46.25;101638.63;5033956;28;20076;-64
2022/06/14 07:30:39;;;;;;;12.48;2.67;;;;;;;14.44;45.37;101644.31;5033919;28;20481;-64
2022/06/14 07:33:06;;;;;;;12.75;2.50;;;;;;;14.44;44.49;101644.31;5033896;28;20099;-64
2022/06/14 07:35:45;;;;;;;11.95;2.42;;;;;;;14.33;44.96;101638.38;5033900;28;20100;-64
2022/06/14 07:38:34;;;;;;;11.68;2.10;;;;;;;14.40;45.23;101636.72;5033653;28;20045;-64
2022/06/14 07:41:06;;;;;;;11.05;2.55;;;;;;;14.58;44.71;101637.44;5033785;28;20088;-64
2022/06/14 07:43:43;;;;;;;15.13;2.03;;;;;;;14.77;44.18;101641.72;5033715;28;20133;-64
2022/06/14 07:46:16;;;;;;;13.90;2.45;;;;;;;14.76;43.54;101637.34;5034178;28;20080;-64
2022/06/14 07:48:54;;;;;;;14.82;2.67;;;;;;;14.98;42.30;101641.25;5033586;28;20100;-64
2022/06/14 07:51:27;;;;;;;7.50;2.30;;;;;;;15.00;42.87;101633.84;5033254;28;20136;-65
2022/06/14 07:54:09;;;;;;;9.45;2.20;;;;;;;14.90;42.36;101625.03;5033154;28;20049;-64
2022/06/14 07:56:50;;;;;;;11.52;2.35;;;;;;;15.01;42.17;101625.56;5033723;28;20420;-63
2022/06/14 07:59:23;;;;;;;10.30;2.67;;;;;;;15.12;41.49;101632.50;5033623;28;20436;-63
2022/06/14 08:02:05;;;;;;;11.13;2.60;;;;;;;15.32;40.74;101630.28;5033706;28;20131;-64
2022/06/14 08:04:39;;;;;;;12.30;2.60;;;;;;;15.52;40.27;101629.97;5033542;28;20089;-64
2022/06/14 08:07:12;;;;;;;13.60;2.47;;;;;;;15.85;39.99;101625.38;5033025;28;20084;-63
2022/06/14 08:10:01;;;;;;;9.48;2.40;;;;;;;16.34;38.83;101633.31;5033536;28;20465;-64
2022/06/14 08:12:37;;;;;;;13.70;2.90;;;;;;;16.71;37.67;101634.50;5033525;28;20402;-63
2022/06/14 08:15:08;;;;;;;10.13;2.05;;;;;;;17.19;36.51;101625.19;5033613;28;20497;-63
2022/06/14 08:17:53;;;;;;;7.82;2.03;;;;;;;17.18;36.62;101620.78;5033062;28;20056;-63
2022/06/14 08:20:26;;;;;;;9.80;2.28;;;;;;;17.17;36.56;101623.69;5035262;28;20087;-63
2022/06/14 08:22:59;;;;;;;8.02;2.00;;;;;;;17.32;37.00;101628.13;5037124;28;20132;-64
2022/06/14 08:25:33;;;;;;;8.20;2.08;;;;;;;17.62;36.90;101621.97;5036937;28;20529;-62
2022/06/14 08:28:15;;;;;;;12.63;2.78;;;;;;;17.48;36.65;101616.31;5037023;28;20077;-64
2022/06/14 08:30:55;;;;;;;13.90;2.20;;;;;;;17.39;36.39;101627.44;5037438;28;20521;-64
2022/06/14 08:33:38;;;;;;;9.90;2.28;;;;;;;16.93;36.10;101628.28;5037019;28;20049;-64
2022/06/14 08:36:09;;;;;;;14.32;2.60;;;;;;;17.93;34.94;101619.94;5036644;28;20084;-64
2022/06/14 08:38:36;;;;;;;;;;;;;;;17.71;35.40;101618.97;5036632;28;20145;-64
2022/06/14 08:41:25;;;;;;;8.40;1.90;;;;;;;17.45;36.28;101616.69;5036703;28;19927;-65
2022/06/14 08:44:09;;;;;;;10.77;2.53;;;;;;;16.53;37.96;101605.81;5028123;28;20055;-63
2022/06/14 08:47:08;;;;;;;10.40;1.95;;;;;;;16.71;38.03;101602.81;5036437;28;20541;-64
2022/06/14 08:50:13;;;;;;;7.35;1.75;;;;;;;17.53;36.21;101613.88;5002872;28;20140;-64
2022/06/14 08:52:58;;;;;;;10.00;2.00;;;;;;;18.12;35.53;101615.78;5036477;28;20429;-64
2022/06/14 08:56:07;;;;;;;10.35;2.30;;;;;;;18.69;34.04;101620.50;5036211;28;20112;-63
2022/06/14 08:58:56;;;;;;;8.55;2.22;;;;;;;18.67;33.94;101616.28;5036428;28;20080;-64
2022/06/14 09:02:00;;;;;;;7.78;2.03;;;;;;;18.03;35.08;101614.19;5036347;28;20069;-65
2022/06/14 09:04:35;;;;;;;9.05;1.60;;;;;;;17.56;35.37;101627.09;5036778;28;20084;-66
2022/06/14 09:07:16;;;;;;;13.60;2.15;;;;;;;17.06;36.62;101617.69;5036362;28;20486;-66
2022/06/14 09:10:20;;;;;;;11.23;2.90;;;;;;;16.22;37.87;101616.59;5037254;28;20045;-67
2022/06/14 09:12:49;;;;;;;12.35;2.35;;;;;;;15.92;38.64;101619.09;5036636;28;20401;-67
2022/06/14 09:15:45;;;;;;;15.20;4.13;;;;;;;15.93;38.94;101617.22;5036361;28;20132;-67
2022/06/14 09:18:37;;;;;;;14.88;6.18;;;;;;;15.50;39.48;101624.72;5036253;28;20450;-67
2022/06/14 09:21:30;;;;;;;14.98;2.30;;;;;;;15.44;39.81;101625.41;5036584;28;20107;-67
2022/06/14 09:24:11;;;;;;;15.40;1.80;;;;;;;15.42;39.96;101616.59;5035899;28;20041;-67
2022/06/14 09:26:50;;;;;;;7.57;2.25;;;;;;;15.68;38.81;101625.41;5036398;28;20076;-65
2022/06/14 09:29:47;;;;;;;7.88;2.00;;;;;;;15.94;37.80;101621.63;5036017;28;20140;-67
2022/06/14 09:36:22;;;;;;;10.60;1.75;;;;;;;15.64;39.09;101621.38;5035964;28;20049;-66
2022/06/14 09:39:19;;;;;;;7.90;1.98;;;;;;;15.65;39.06;101631.16;4994446;28;20085;-66
2022/06/14 09:42:03;;;;;;;7.35;2.55;;;;;;;15.58;39.24;101626.56;4994686;28;20117;-66
2022/06/14 09:44:39;;;;;;;7.45;1.63;;;;;;;15.44;39.22;101636.22;4994501;28;20059;-67
2022/06/14 09:47:24;;;;;;;14.18;2.22;;;;;;;15.52;39.90;101629.97;4995047;28;20458;-65
2022/06/14 09:50:08;;;;;;;7.78;1.83;;;;;;;15.46;39.70;101631.47;4994503;28;20397;-66
2022/06/14 09:53:04;;;;;;;5.05;1.52;;;;;;;16.24;38.79;101621.84;4994348;28;20590;-67
2022/06/14 09:55:49;;;;;;;12.57;2.15;;;;;;;17.18;36.66;101625.38;4994221;28;20509;-66
2022/06/14 09:58:37;;;;;;;9.38;1.88;;;;;;;17.49;35.63;101623.44;4994279;28;20467;-68
2022/06/14 10:01:30;;;;;;;6.72;2.30;;;;;;;18.38;33.41;101623.47;4995357;28;20098;-65
2022/06/14 10:04:30;;;;;;;8.35;1.73;;;;;;;18.27;32.98;101622.09;4994094;28;20133;-66
2022/06/14 10:07:26;;;;;;;11.05;1.95;;;;;;;17.42;34.20;101630.63;4994303;28;20137;-67
2022/06/14 10:09:57;;;;;;;14.05;2.47;;;;;;;17.36;34.91;101628.63;5018815;28;20115;-65
2022/06/14 10:12:27;;;;;;;12.43;2.55;;;;;;;17.34;34.62;101636.13;5035534;28;20549;-66
2022/06/14 10:15:15;;;;;;;10.15;2.47;;;;;;;16.79;36.11;101631.75;5035825;28;20407;-66
2022/06/14 10:17:49;;;;;;;6.80;1.65;;;;;;;16.39;36.84;101626.34;5035476;28;20119;-66
2022/06/14 10:20:19;;;;;;;13.85;1.83;;;;;;;16.04;37.45;101630.38;5035398;28;20552;-64
2022/06/14 10:23:06;;;;;;;13.38;2.30;;;;;;;15.74;37.68;101626.56;5035564;28;20129;-67
2022/06/14 10:29:07;;;;;;;11.02;2.13;;;;;;;15.49;39.28;101621.16;5035611;28;20136;-66
2022/06/14 10:32:01;;;;;;;10.23;2.60;;;;;;;15.79;38.61;101617.94;4954984;29;20055;-66
2022/06/14 10:34:46;;;;;;;13.50;2.03;;;;;;;16.10;38.02;101626.13;4954487;29;20084;-66
2022/06/14 10:37:45;;;;;;;6.50;2.05;;;;;;;16.24;38.04;101616.44;4954786;29;20147;-66
2022/06/14 10:40:33;;;;;;;9.07;2.17;;;;;;;16.18;37.43;101607.16;4945011;29;20055;-65
2022/06/14 10:43:03;;;;;;;12.07;2.00;;;;;;;16.43;37.39;101626.81;4953196;28;20247;-66
2022/06/14 10:45:37;;;;;;;11.73;2.03;;;;;;;16.70;36.98;101611.16;4954082;29;20475;-65
2022/06/14 10:48:17;;;;;;;8.55;1.98;;;;;;;16.85;35.50;101615.63;4954298;29;20055;-67
2022/06/14 10:51:13;;;;;;;12.35;2.72;;;;;;;16.39;36.33;101623.63;4954146;29;20087;-65
2022/06/14 10:54:04;;;;;;;6.93;1.90;;;;;;;16.17;36.27;101627.13;4954812;29;20054;-66
2022/06/14 10:57:02;;;;;;;13.52;1.85;;;;;;;16.07;37.07;101619.22;4955149;29;20559;-66
2022/06/14 10:59:46;;;;;;;12.10;2.38;;;;;;;15.93;37.37;101622.63;4954706;29;20516;-66
2022/06/14 11:02:20;;;;;;;10.23;1.90;;;;;;;15.75;37.58;101622.84;4954109;29;20193;-66
2022/06/14 11:04:51;;;;;;;7.80;2.05;;;;;;;15.68;37.43;101621.88;4964480;28;20077;-66
2022/06/14 11:07:58;;;;;;;9.73;2.13;;;;;;;15.77;38.39;101619.97;5034863;28;20061;-67
2022/06/14 11:10:46;;;;;;;14.95;1.63;;;;;;;15.83;36.81;101620.13;5034559;28;20084;-67
2022/06/14 11:13:28;;;;;;;11.73;1.95;;;;;;;16.08;36.93;101611.94;5034975;28;20092;-68
2022/06/14 11:16:04;;;;;;;10.65;1.80;;;;;;;16.36;35.96;101625.84;5034473;28;20054;-67
2022/06/14 11:18:36;;;;;;;6.03;1.58;;;;;;;16.60;36.09;101617.63;5034293;28;20128;-66
2022/06/14 11:21:33;;;;;;;6.13;1.63;;;;;;;16.52;35.35;101616.84;5035503;28;20416;-67
2022/06/14 11:24:21;;;;;;;7.68;1.98;;;;;;;16.50;36.04;101616.13;5035063;28;20049;-67
2022/06/14 11:27:09;;;;;;;10.35;2.05;;;;;;;16.62;36.13;101618.31;5034616;28;20061;-67
2022/06/14 11:29:55;;;;;;;11.18;1.73;;;;;;;16.47;36.48;101617.34;5034240;28;20060;-65
2022/06/14 11:32:31;;;;;;;7.22;1.58;;;;;;;16.58;36.39;101625.09;5034004;28;20141;-66
2022/06/14 11:35:16;;;;;;;9.30;1.58;;;;;;;16.69;36.20;101618.44;5034563;28;20464;-65
2022/06/14 11:37:52;;;;;;;9.55;1.90;;;;;;;17.07;35.13;101610.38;5033655;28;20050;-64
2022/06/14 11:40:30;;;;;;;7.75;1.55;;;;;;;17.02;35.70;101610.91;5034347;28;20096;-66
2022/06/14 11:43:31;;;;;;;10.38;1.80;;;;;;;16.88;35.58;101614.41;5033813;28;20470;-66
2022/06/14 11:46:02;;;;;;;6.03;1.50;;;;;;;16.77;35.23;101603.97;5033538;28;20107;-66
2022/06/14 11:48:37;;;;;;;15.85;2.00;;;;;;;16.48;35.00;101608.19;5033625;28;20498;-64
2022/06/14 11:51:24;;;;;;;7.45;1.73;;;;;;;16.42;35.82;101604.31;5033365;28;20171;-65
2022/06/14 11:54:03;;;;;;;7.93;2.13;;;;;;;16.51;35.35;101610.59;5033807;28;20124;-65
2022/06/14 11:56:46;;;;;;;6.63;1.30;;;;;;;16.52;35.38;101606.84;5037427;28;20141;-65
2022/06/14 11:59:56;;;;;;;4.15;1.70;;;;;;;16.73;36.08;101597.25;5037129;28;20140;-64
2022/06/14 12:02:38;;;;;;;8.00;1.63;;;;;;;16.71;35.66;101602.81;5037208;28;20053;-65
2022/06/14 12:05:30;;;;;;;8.52;1.70;;;;;;;16.57;35.85;101592.75;5037884;28;20053;-64
2022/06/14 12:08:29;;;;;;;5.90;1.65;;;;;;;16.38;36.24;101591.31;5037286;28;20080;-65
2022/06/14 12:11:24;;;;;;;9.32;2.00;;;;;;;16.38;36.05;101597.56;5037213;28;20136;-65
2022/06/14 12:14:14;;;;;;;4.90;1.83;;;;;;;16.45;35.87;101592.31;5037479;28;20050;-66
2022/06/14 12:16:52;;;;;;;6.07;1.58;;;;;;;16.29;35.88;101592.38;5037789;28;20053;-65
2022/06/14 12:19:28;;;;;;;10.80;1.50;;;;;;;16.42;35.51;101596.19;5037268;28;20417;-65
2022/06/14 12:22:28;;;;;;;6.28;1.58;;;;;;;16.45;35.32;101592.31;5037446;28;20099;-65
2022/06/14 12:27:58;;;;;;;4.63;1.65;;;;;;;16.45;35.66;101588.75;5037096;28;20144;-64
2022/06/14 12:30:28;;;;;;;16.08;8.52;;;;;;;16.58;35.77;101589.88;5037164;28;20085;-65
2022/06/14 12:33:28;;;;;;;18.17;9.32;;;;;;;16.56;36.37;101589.22;5037126;28;20048;-64
2022/06/14 12:36:13;;;;;;;9.27;1.85;;;;;;;16.21;36.30;101587.00;5032916;28;20046;-65
2022/06/14 12:38:43;;;;;;;10.75;1.85;;;;;;;16.23;35.89;101584.94;5037406;28;20109;-65
2022/06/14 12:41:17;;;;;;;6.82;2.00;;;;;;;16.41;36.08;101582.84;5037266;28;20145;-66
2022/06/14 12:43:56;;;;;;;7.00;1.92;;;;;;;16.61;35.33;101586.81;5037087;28;20422;-67